Time;durP1;ratioP1;P1;durP2;ratioP2;P2;SDS_P1;SDS_P2;PMS_P1;PMS_P2;Temp;Humidity;BMP_temperature;BMP_pressure;BME280_temperature;BME280_humidity;BME280_pressure;Samples;Min_cycle;Max_cycle;Signal;HPM_P1;HPM_P2
2021/10/18 00:00:45;;;;;;;7.32;3.13;;;;;;;;;;4813862;29;32185;-62
2021/10/18 00:03:12;;;;;;;6.38;3.58;;;;;;;;;;4808866;29;32600;-63
2021/10/18 00:05:39;;;;;;;5.75;3.60;;;;;;;;;;4813111;29;34997;-62
2021/10/18 00:08:07;;;;;;;6.97;3.67;;;;;;;;;;4815339;29;32531;-62
2021/10/18 00:10:33;;;;;;;7.75;3.58;;;;;;;;;;4818082;29;32320;-64
2021/10/18 00:13:00;;;;;;;5.68;3.83;;;;;;;;;;4825457;29;32660;-62
2021/10/18 00:15:26;;;;;;;8.32;3.55;;;;;;;;;;4818836;29;34663;-62
2021/10/18 00:17:55;;;;;;;5.65;3.45;;;;;;;;;;4826524;29;32636;-62
2021/10/18 00:20:23;;;;;;;7.18;3.70;;;;;;;;;;4814879;29;32619;-62
2021/10/18 00:22:50;;;;;;;6.43;3.78;;;;;;;;;;4827612;29;32219;-62
2021/10/18 00:25:19;;;;;;;9.45;3.60;;;;;;;;;;4827015;29;32616;-62
2021/10/18 00:27:46;;;;;;;6.55;3.63;;;;;;;;;;4817327;29;32691;-64
2021/10/18 00:30:14;;;;;;;6.15;3.83;;;;;;;;;;4825843;29;32491;-63
2021/10/18 00:32:41;;;;;;;6.90;3.70;;;;;;;;;;4811086;29;32751;-67
2021/10/18 00:35:09;;;;;;;6.93;3.42;;;;;;;;;;4809701;29;32521;-65
2021/10/18 00:37:35;;;;;;;8.15;3.47;;;;;;;;;;4825479;29;34076;-63
2021/10/18 00:40:02;;;;;;;7.25;4.00;;;;;;;;;;4826616;29;32458;-63
2021/10/18 00:42:30;;;;;;;4.32;3.13;;;;;;;;;;4824668;29;32715;-66
2021/10/18 00:44:56;;;;;;;5.93;3.50;;;;;;;;;;4810495;29;32472;-63
2021/10/18 00:47:23;;;;;;;6.97;3.35;;;;;;;;;;4820992;29;32458;-65
2021/10/18 00:49:50;;;;;;;4.25;2.97;;;;;;;;;;4827246;29;32547;-65
2021/10/18 00:52:18;;;;;;;8.00;3.45;;;;;;;;;;4822896;29;32332;-65
2021/10/18 00:54:46;;;;;;;5.75;3.05;;;;;;;;;;4818021;29;32368;-62
2021/10/18 00:57:13;;;;;;;11.55;3.42;;;;;;;;;;4820239;29;32367;-64
2021/10/18 00:59:42;;;;;;;7.90;3.22;;;;;;;;;;4823522;29;34198;-66
2021/10/18 01:02:09;;;;;;;5.85;3.10;;;;;;;;;;4817900;29;32537;-62
2021/10/18 01:04:36;;;;;;;5.60;2.80;;;;;;;;;;4825226;29;32510;-66
2021/10/18 01:07:02;;;;;;;5.57;3.25;;;;;;;;;;4820720;29;32653;-62
2021/10/18 01:09:29;;;;;;;6.70;3.22;;;;;;;;;;4800753;29;37194;-61
2021/10/18 01:11:55;;;;;;;4.38;2.85;;;;;;;;;;4808093;29;32547;-65
2021/10/18 01:14:22;;;;;;;6.03;3.22;;;;;;;;;;4824215;29;32440;-62
2021/10/18 01:16:50;;;;;;;6.95;2.72;;;;;;;;;;4826421;29;32257;-66
2021/10/18 01:19:18;;;;;;;5.30;3.13;;;;;;;;;;4826767;29;32562;-64
2021/10/18 01:21:46;;;;;;;4.82;3.33;;;;;;;;;;4826052;29;34003;-66
2021/10/18 01:24:13;;;;;;;5.50;2.88;;;;;;;;;;4826494;29;32818;-66
2021/10/18 01:26:39;;;;;;;6.45;3.13;;;;;;;;;;4823519;29;32425;-62
2021/10/18 01:29:06;;;;;;;4.38;2.60;;;;;;;;;;4821944;29;32565;-62
2021/10/18 01:31:33;;;;;;;5.25;3.22;;;;;;;;;;4816452;29;34122;-62
2021/10/18 01:33:59;;;;;;;6.70;3.40;;;;;;;;;;4826398;29;32339;-62
2021/10/18 01:36:26;;;;;;;7.35;3.17;;;;;;;;;;4821261;29;32332;-64
2021/10/18 01:38:54;;;;;;;6.13;3.50;;;;;;;;;;4808015;29;32433;-66
2021/10/18 01:41:20;;;;;;;6.13;2.90;;;;;;;;;;4808617;29;32270;-64
2021/10/18 01:43:47;;;;;;;6.03;3.03;;;;;;;;;;4808926;29;34733;-63
2021/10/18 01:46:13;;;;;;;6.30;3.33;;;;;;;;;;4808620;29;32544;-63
2021/10/18 01:48:40;;;;;;;7.57;3.15;;;;;;;;;;4826482;29;32673;-62
2021/10/18 01:51:07;;;;;;;4.65;2.83;;;;;;;;;;4810750;29;32411;-62
2021/10/18 01:53:34;;;;;;;5.30;3.20;;;;;;;;;;4823596;29;34052;-63
2021/10/18 01:56:03;;;;;;;4.35;2.88;;;;;;;;;;4811705;29;32804;-63
2021/10/18 01:58:31;;;;;;;6.25;2.83;;;;;;;;;;4821589;29;32320;-66
2021/10/18 02:00:58;;;;;;;5.65;2.92;;;;;;;;;;4819624;29;32535;-66
2021/10/18 02:03:24;;;;;;;4.82;2.83;;;;;;;;;;4819635;29;32256;-62
2021/10/18 02:05:51;;;;;;;6.47;3.00;;;;;;;;;;4816135;29;34715;-65
2021/10/18 02:08:17;;;;;;;7.10;4.10;;;;;;;;;;4816848;29;32854;-65
2021/10/18 02:10:44;;;;;;;6.13;3.17;;;;;;;;;;4810521;29;32613;-65
2021/10/18 02:13:12;;;;;;;4.65;3.08;;;;;;;;;;4814823;29;32353;-62
2021/10/18 02:15:38;;;;;;;5.88;2.95;;;;;;;;;;4826289;29;33948;-66
2021/10/18 02:18:05;;;;;;;5.63;3.35;;;;;;;;;;4815202;23;32950;-67
2021/10/18 02:20:32;;;;;;;6.72;3.22;;;;;;;;;;4807050;29;32358;-62
2021/10/18 02:22:58;;;;;;;5.22;3.05;;;;;;;;;;4804644;29;32694;-63
2021/10/18 02:25:25;;;;;;;6.15;3.65;;;;;;;;;;4806635;29;32580;-65
2021/10/18 02:27:51;;;;;;;4.95;3.10;;;;;;;;;;4806539;29;35411;-62
2021/10/18 02:30:19;;;;;;;7.72;3.20;;;;;;;;;;4807313;29;32441;-65
2021/10/18 02:32:46;;;;;;;5.28;3.22;;;;;;;;;;4790469;29;32520;-62
2021/10/18 02:35:12;;;;;;;5.35;3.10;;;;;;;;;;4807477;29;32419;-64
2021/10/18 02:37:39;;;;;;;4.22;3.05;;;;;;;;;;4807142;29;33953;-65
2021/10/18 02:40:08;;;;;;;4.43;3.15;;;;;;;;;;4806785;29;32266;-63
2021/10/18 02:42:34;;;;;;;6.65;3.50;;;;;;;;;;4804046;29;32374;-62
2021/10/18 02:45:01;;;;;;;6.20;3.38;;;;;;;;;;4806453;29;32819;-64
2021/10/18 02:47:28;;;;;;;8.88;3.78;;;;;;;;;;4801308;29;32470;-62
2021/10/18 02:49:55;;;;;;;5.47;3.05;;;;;;;;;;4806049;29;35605;-63
2021/10/18 02:52:22;;;;;;;6.35;3.58;;;;;;;;;;4807776;29;32442;-63
2021/10/18 02:54:48;;;;;;;6.25;3.35;;;;;;;;;;4809873;29;32517;-62
2021/10/18 02:57:15;;;;;;;6.22;3.72;;;;;;;;;;4809325;29;32805;-64
2021/10/18 02:59:41;;;;;;;6.63;4.13;;;;;;;;;;4809373;29;33953;-66
2021/10/18 03:02:08;;;;;;;5.35;3.85;;;;;;;;;;4809574;29;34717;-65
2021/10/18 03:04:36;;;;;;;6.82;3.83;;;;;;;;;;4809806;29;32653;-63
2021/10/18 03:07:03;;;;;;;7.50;3.85;;;;;;;;;;4809427;29;32621;-63
2021/10/18 03:09:29;;;;;;;8.18;3.90;;;;;;;;;;4809933;29;32489;-63
2021/10/18 03:11:56;;;;;;;7.72;4.50;;;;;;;;;;4808008;29;34113;-64
2021/10/18 03:14:22;;;;;;;6.68;4.00;;;;;;;;;;4810165;29;33809;-61
2021/10/18 03:16:49;;;;;;;9.80;4.05;;;;;;;;;;4809378;29;32358;-61
2021/10/18 03:19:16;;;;;;;8.15;3.53;;;;;;;;;;4805200;29;32392;-61
2021/10/18 03:21:44;;;;;;;6.07;3.70;;;;;;;;;;4809588;29;34656;-64
2021/10/18 03:24:10;;;;;;;8.73;3.50;;;;;;;;;;4809375;29;32381;-62
2021/10/18 03:26:37;;;;;;;9.27;3.88;;;;;;;;;;4809187;29;32493;-62
2021/10/18 03:29:03;;;;;;;9.23;3.33;;;;;;;;;;4809055;29;32587;-63
2021/10/18 03:31:30;;;;;;;8.43;4.22;;;;;;;;;;4809599;29;32237;-62
2021/10/18 03:33:56;;;;;;;6.35;3.55;;;;;;;;;;4808772;29;34252;-63
2021/10/18 03:36:23;;;;;;;7.70;3.58;;;;;;;;;;4809672;29;32364;-64
2021/10/18 03:38:52;;;;;;;8.05;3.85;;;;;;;;;;4807159;29;32181;-62
2021/10/18 03:41:19;;;;;;;5.95;3.42;;;;;;;;;;4796970;29;32407;-62
2021/10/18 03:43:45;;;;;;;6.50;3.20;;;;;;;;;;4807439;29;35936;-65
2021/10/18 03:46:11;;;;;;;10.60;3.45;;;;;;;;;;4808446;29;32755;-64
2021/10/18 03:48:38;;;;;;;6.80;3.35;;;;;;;;;;4796398;29;32556;-62
2021/10/18 03:51:04;;;;;;;6.90;3.58;;;;;;;;;;4807092;29;32426;-62
2021/10/18 03:53:31;;;;;;;6.30;3.70;;;;;;;;;;4808318;29;32412;-62
2021/10/18 03:55:59;;;;;;;8.52;4.25;;;;;;;;;;4808647;29;34259;-63
2021/10/18 03:58:25;;;;;;;5.47;4.03;;;;;;;;;;4809877;29;32529;-65
2021/10/18 04:00:52;;;;;;;9.15;4.05;;;;;;;;;;4808778;29;32450;-63
2021/10/18 04:03:18;;;;;;;7.55;3.33;;;;;;;;;;4808701;29;32634;-66
2021/10/18 04:05:45;;;;;;;8.50;3.75;;;;;;;;;;4809001;29;34296;-63
2021/10/18 04:08:11;;;;;;;8.50;3.70;;;;;;;;;;4808560;29;32904;-65
2021/10/18 04:10:38;;;;;;;8.57;3.45;;;;;;;;;;4807680;29;32468;-66
2021/10/18 04:13:06;;;;;;;6.65;3.72;;;;;;;;;;4808166;29;32394;-64
2021/10/18 04:15:32;;;;;;;8.43;4.20;;;;;;;;;;4806112;29;32521;-64
2021/10/18 04:17:59;;;;;;;8.15;4.57;;;;;;;;;;4806968;29;34032;-64
2021/10/18 04:20:25;;;;;;;11.65;3.70;;;;;;;;;;4801938;29;32671;-63
2021/10/18 04:22:52;;;;;;;7.45;4.13;;;;;;;;;;4808189;29;32489;-63
2021/10/18 04:25:18;;;;;;;8.48;4.43;;;;;;;;;;4808765;29;32504;-63
2021/10/18 04:27:45;;;;;;;9.35;4.05;;;;;;;;;;4807981;29;35460;-63
2021/10/18 04:30:13;;;;;;;8.45;4.93;;;;;;;;;;4804084;29;32599;-62
2021/10/18 04:32:40;;;;;;;10.10;4.55;;;;;;;;;;4808685;29;32528;-61
2021/10/18 04:35:07;;;;;;;10.73;5.65;;;;;;;;;;4802284;29;32466;-62
2021/10/18 04:37:33;;;;;;;;;;;;;;;;;;4804842;29;32413;-64
2021/10/18 04:40:00;;;;;;;9.23;5.03;;;;;;;;;;4808025;29;34181;-62
2021/10/18 04:42:26;;;;;;;10.13;5.20;;;;;;;;;;4808308;29;32761;-63
2021/10/18 04:44:52;;;;;;;9.85;5.45;;;;;;;;;;4808560;29;32717;-63
2021/10/18 04:47:20;;;;;;;8.82;5.47;;;;;;;;;;4806242;29;32343;-63
2021/10/18 04:49:47;;;;;;;9.52;5.53;;;;;;;;;;4804294;29;35785;-63
2021/10/18 04:52:14;;;;;;;9.90;5.38;;;;;;;;;;4801307;29;32577;-64
2021/10/18 04:54:40;;;;;;;9.15;5.45;;;;;;;;;;4790678;29;32447;-63
2021/10/18 04:57:07;;;;;;;13.75;6.68;;;;;;;;;;4797231;29;32456;-63
2021/10/18 04:59:33;;;;;;;8.65;6.22;;;;;;;;;;4804602;29;32416;-63
2021/10/18 05:01:59;;;;;;;11.25;5.63;;;;;;;;;;4808634;29;35509;-62
2021/10/18 05:04:27;;;;;;;12.10;6.75;;;;;;;;;;4808417;29;32497;-64
2021/10/18 05:06:54;;;;;;;11.90;6.30;;;;;;;;;;4808022;29;32683;-65
2021/10/18 05:09:21;;;;;;;9.13;5.78;;;;;;;;;;4746987;29;32475;-64
2021/10/18 05:11:51;;;;;;;10.73;6.32;;;;;;;;;;4683304;29;62712;-63
2021/10/18 05:14:17;;;;;;;8.45;5.22;;;;;;;;;;4807750;29;32784;-62
2021/10/18 05:16:44;;;;;;;9.90;5.82;;;;;;;;;;4807218;29;32671;-63
2021/10/18 05:19:10;;;;;;;10.57;5.93;;;;;;;;;;4807973;29;33096;-65
2021/10/18 05:21:38;;;;;;;10.38;5.68;;;;;;;;;;4810534;29;32361;-62
2021/10/18 05:24:05;;;;;;;10.05;6.00;;;;;;;;;;4808558;29;34349;-63
2021/10/18 05:26:35;;;;;;;11.27;5.63;;;;;;;;;;4805394;29;32327;-63
2021/10/18 05:29:02;;;;;;;10.63;5.70;;;;;;;;;;4800119;29;32422;-63
2021/10/18 05:31:29;;;;;;;9.95;5.25;;;;;;;;;;4807194;29;32640;-64
2021/10/18 05:33:55;;;;;;;8.15;5.43;;;;;;;;;;4805093;29;35408;-66
2021/10/18 05:36:22;;;;;;;11.65;6.20;;;;;;;;;;4807629;29;32432;-64
2021/10/18 05:38:50;;;;;;;11.45;5.25;;;;;;;;;;4805399;29;32651;-64
2021/10/18 05:41:16;;;;;;;8.88;5.82;;;;;;;;;;4809276;29;32346;-64
2021/10/18 05:43:43;;;;;;;7.50;5.38;;;;;;;;;;4805194;29;32532;-65
2021/10/18 05:46:10;;;;;;;8.63;5.88;;;;;;;;;;4810331;29;34204;-64
2021/10/18 05:48:36;;;;;;;8.95;5.68;;;;;;;;;;4804883;29;32655;-65
2021/10/18 05:51:03;;;;;;;11.88;6.38;;;;;;;;;;4810418;29;32457;-65
2021/10/18 05:53:30;;;;;;;9.60;5.90;;;;;;;;;;4810224;29;32361;-65
2021/10/18 05:55:57;;;;;;;12.60;5.90;;;;;;;;;;4810391;29;34542;-65
2021/10/18 05:58:24;;;;;;;12.52;5.97;;;;;;;;;;4810362;29;33198;-67
2021/10/18 06:00:50;;;;;;;11.65;6.82;;;;;;;;;;4809299;29;32204;-67
2021/10/18 06:03:17;;;;;;;11.38;6.22;;;;;;;;;;4804397;29;32508;-64
2021/10/18 06:05:47;;;;;;;9.63;6.47;;;;;;;;;;4802070;29;32408;-66
2021/10/18 06:08:15;;;;;;;11.07;7.22;;;;;;;;;;4803191;29;34661;-64
2021/10/18 06:10:42;;;;;;;14.13;7.20;;;;;;;;;;4804048;29;32408;-66
2021/10/18 06:13:11;;;;;;;10.05;7.00;;;;;;;;;;4801772;29;32373;-63
2021/10/18 06:15:38;;;;;;;12.80;7.68;;;;;;;;;;4803553;29;32352;-66
2021/10/18 06:18:11;;;;;;;14.13;7.22;;;;;;;;;;4802855;29;34184;-64
2021/10/18 06:20:39;;;;;;;12.80;7.95;;;;;;;;;;4804256;29;32631;-64
2021/10/18 06:23:06;;;;;;;15.50;7.50;;;;;;;;;;4804423;29;32404;-64
2021/10/18 06:25:32;;;;;;;10.98;7.35;;;;;;;;;;4806187;29;32520;-63
2021/10/18 06:28:00;;;;;;;15.38;7.80;;;;;;;;;;4804619;29;32527;-64
2021/10/18 06:30:28;;;;;;;13.63;7.70;;;;;;;;;;4801663;29;35001;-65
2021/10/18 06:32:55;;;;;;;14.32;7.45;;;;;;;;;;4801204;29;32258;-64
2021/10/18 06:35:21;;;;;;;11.65;7.32;;;;;;;;;;4812223;29;32373;-65
2021/10/18 06:37:48;;;;;;;14.55;7.95;;;;;;;;;;4795295;29;32377;-64
2021/10/18 06:40:15;;;;;;;13.18;7.50;;;;;;;;;;4807262;29;34304;-65
2021/10/18 06:42:42;;;;;;;;;;;;;;;;;;4812785;29;32546;-64
2021/10/18 06:45:10;;;;;;;13.40;7.35;;;;;;;;;;4812866;29;32623;-67
2021/10/18 06:47:38;;;;;;;10.68;7.93;;;;;;;;;;4813126;29;32285;-64
2021/10/18 06:50:07;;;;;;;10.48;7.43;;;;;;;;;;4797061;29;32452;-65
2021/10/18 06:52:36;;;;;;;12.00;7.10;;;;;;;;;;4812870;29;35703;-65
2021/10/18 06:55:07;;;;;;;11.02;7.35;;;;;;;;;;4805782;29;32738;-64
2021/10/18 06:57:34;;;;;;;10.95;7.85;;;;;;;;;;4807860;29;32444;-65
2021/10/18 07:00:01;;;;;;;11.02;7.05;;;;;;;;;;4809516;29;32255;-65
2021/10/18 07:02:27;;;;;;;11.27;6.85;;;;;;;;;;4807319;29;35165;-64
2021/10/18 07:04:55;;;;;;;12.55;7.20;;;;;;;;;;4812503;29;32640;-64
2021/10/18 07:07:22;;;;;;;13.73;7.93;;;;;;;;;;4811936;29;32361;-66
2021/10/18 07:09:48;;;;;;;12.02;6.53;;;;;;;;;;4812359;29;32259;-64
2021/10/18 07:12:15;;;;;;;12.93;7.53;;;;;;;;;;4804273;29;32506;-65
2021/10/18 07:14:41;;;;;;;12.75;6.90;;;;;;;;;;4807599;29;34697;-65
2021/10/18 07:17:08;;;;;;;13.10;7.05;;;;;;;;;;4808801;29;33151;-65
2021/10/18 07:19:34;;;;;;;15.50;7.35;;;;;;;;;;4805919;29;32365;-67
2021/10/18 07:22:02;;;;;;;12.93;7.25;;;;;;;;;;4808223;29;32519;-64
2021/10/18 07:24:29;;;;;;;10.43;7.15;;;;;;;;;;4808860;29;34376;-66
2021/10/18 07:26:56;;;;;;;11.13;6.75;;;;;;;;;;4806178;29;32306;-64
2021/10/18 07:29:22;;;;;;;12.57;6.85;;;;;;;;;;4804730;29;32451;-67
2021/10/18 07:31:49;;;;;;;9.88;7.30;;;;;;;;;;4811358;29;32317;-67
2021/10/18 07:34:18;;;;;;;12.07;7.45;;;;;;;;;;4813013;29;32314;-67
2021/10/18 07:36:49;;;;;;;10.13;6.30;;;;;;;;;;4811954;29;34044;-64
2021/10/18 07:39:20;;;;;;;11.93;7.20;;;;;;;;;;4809792;29;32304;-63
2021/10/18 07:41:47;;;;;;;10.43;6.55;;;;;;;;;;4805686;29;32332;-65
2021/10/18 07:44:14;;;;;;;10.48;6.70;;;;;;;;;;4808341;29;32513;-65
2021/10/18 07:46:41;;;;;;;12.15;7.00;;;;;;;;;;4809702;29;34649;-65
2021/10/18 07:49:09;;;;;;;11.52;6.22;;;;;;;;;;4812759;29;32327;-65
2021/10/18 07:51:35;;;;;;;10.73;6.43;;;;;;;;;;4808390;29;32266;-66
2021/10/18 07:54:03;;;;;;;11.38;6.38;;;;;;;;;;4803395;29;32285;-66
2021/10/18 07:56:31;;;;;;;10.25;6.53;;;;;;;;;;4793546;29;32191;-66
2021/10/18 07:58:58;;;;;;;9.85;6.15;;;;;;;;;;4792906;29;34326;-66
2021/10/18 08:01:24;;;;;;;;;;;;;;;;;;4794878;29;32322;-66
2021/10/18 08:03:51;;;;;;;7.80;5.82;;;;;;;;;;4794609;29;32479;-65
2021/10/18 08:06:17;;;;;;;8.30;6.05;;;;;;;;;;4794493;29;32337;-65
2021/10/18 08:08:45;;;;;;;9.90;6.18;;;;;;;;;;4794343;29;34449;-64
2021/10/18 08:11:12;;;;;;;10.43;6.20;;;;;;;;;;4803173;29;32356;-65
2021/10/18 08:13:40;;;;;;;11.52;6.03;;;;;;;;;;4794521;29;32295;-65
2021/10/18 08:16:06;;;;;;;10.57;5.65;;;;;;;;;;4794459;29;32413;-65
2021/10/18 08:18:33;;;;;;;9.68;6.18;;;;;;;;;;4794094;29;32415;-66
2021/10/18 08:21:00;;;;;;;9.25;6.32;;;;;;;;;;4797587;29;34161;-66
2021/10/18 08:23:26;;;;;;;11.52;6.50;;;;;;;;;;4812475;29;32250;-67
2021/10/18 08:25:53;;;;;;;10.38;5.65;;;;;;;;;;4806129;29;32669;-64
2021/10/18 08:28:19;;;;;;;8.80;6.28;;;;;;;;;;4794023;29;32464;-65
2021/10/18 08:30:47;;;;;;;9.50;5.38;;;;;;;;;;4806546;29;34728;-65
2021/10/18 08:33:13;;;;;;;10.52;5.95;;;;;;;;;;4812541;29;32311;-67
2021/10/18 08:35:40;;;;;;;9.88;6.03;;;;;;;;;;4812729;29;32422;-65
2021/10/18 08:45:53;;;;;;;9.43;5.53;;;;;;;;;;4812439;29;32180;-66
2021/10/18 08:48:19;;;;;;;8.52;5.85;;;;;;;;;;4812042;29;32812;-65
2021/10/18 08:50:48;;;;;;;8.73;5.30;;;;;;;;;;4811577;29;32200;-65
2021/10/18 08:53:15;;;;;;;9.70;5.20;;;;;;;;;;4807627;29;35416;-66
2021/10/18 08:55:42;;;;;;;7.35;5.28;;;;;;;;;;4809931;29;32285;-64
2021/10/18 08:58:09;;;;;;;11.30;5.82;;;;;;;;;;4812381;29;32091;-64
2021/10/18 09:00:42;;;;;;;9.07;5.50;;;;;;;;;;4808046;29;32525;-67
2021/10/18 09:03:19;;;;;;;9.15;5.60;;;;;;;;;;4812499;29;32263;-64
2021/10/18 09:05:46;;;;;;;10.93;5.65;;;;;;;;;;4811912;29;34003;-66
2021/10/18 09:08:33;;;;;;;10.95;5.75;;;;;;;;;;4811992;29;32358;-64
2021/10/18 09:11:06;;;;;;;9.02;5.35;;;;;;;;;;4807439;29;32211;-66
2021/10/18 09:13:33;;;;;;;10.43;6.03;;;;;;;;;;4793787;29;32403;-66
2021/10/18 09:15:59;;;;;;;11.82;5.70;;;;;;;;;;4793371;29;34662;-64
2021/10/18 09:18:27;;;;;;;12.02;5.60;;;;;;;;;;4807603;29;32456;-65
2021/10/18 09:20:54;;;;;;;10.00;6.05;;;;;;;;;;4811763;29;32345;-66
2021/10/18 09:25:58;;;;;;;9.82;6.03;;;;;;;;;;4801057;29;32172;-64
2021/10/18 09:28:26;;;;;;;10.90;6.18;;;;;;;;;;4793561;29;32438;-64
2021/10/18 09:30:52;;;;;;;8.50;5.53;;;;;;;;;;4793230;29;32224;-66
2021/10/18 09:33:24;;;;;;;12.43;5.82;;;;;;;;;;4793444;29;32326;-65
2021/10/18 09:35:53;;;;;;;9.68;5.18;;;;;;;;;;4793470;29;32344;-65
2021/10/18 09:38:21;;;;;;;9.82;6.40;;;;;;;;;;4808320;29;35359;-64
2021/10/18 09:40:49;;;;;;;9.32;5.53;;;;;;;;;;4811653;29;32389;-66
2021/10/18 09:43:43;;;;;;;9.98;5.65;;;;;;;;;;4800693;29;32400;-66
2021/10/18 09:46:14;;;;;;;10.27;5.32;;;;;;;;;;4797958;29;32367;-63
2021/10/18 10:54:05;;;;;;;9.05;5.32;;;;;;;;;;4809980;29;34317;-63
2021/10/18 10:56:46;;;;;;;10.45;5.90;;;;;;;;;;4792080;29;32271;-64
2021/10/18 10:59:23;;;;;;;8.57;5.28;;;;;;;;;;4792247;29;32500;-64
2021/10/18 11:01:54;;;;;;;11.43;4.78;;;;;;;;;;4791998;29;32279;-66
2021/10/18 11:04:46;;;;;;;9.25;5.10;;;;;;;;;;4790940;29;32462;-64
2021/10/18 11:07:53;;;;;;;7.82;4.70;;;;;;;;;;4799467;29;32382;-65
2021/10/18 11:10:23;;;;;;;10.93;5.25;;;;;;;;;;4801822;29;32251;-63
2021/10/18 11:12:53;;;;;;;9.25;4.90;;;;;;;;;;4811422;29;32320;-64
2021/10/18 11:15:25;;;;;;;9.77;5.15;;;;;;;;;;4813514;29;32397;-63
2021/10/18 11:17:54;;;;;;;9.00;4.93;;;;;;;;;;4812703;29;35204;-65
2021/10/18 11:20:23;;;;;;;11.70;4.80;;;;;;;;;;4813220;29;32467;-64
2021/10/18 11:22:51;;;;;;;9.20;5.05;;;;;;;;;;4797860;29;32405;-64
2021/10/18 11:25:20;;;;;;;9.30;5.53;;;;;;;;;;4794795;29;32235;-65
2021/10/18 11:27:53;;;;;;;10.43;5.43;;;;;;;;;;4809735;29;32524;-65
2021/10/18 11:30:22;;;;;;;13.25;5.00;;;;;;;;;;4813279;29;32144;-65
2021/10/18 11:32:58;;;;;;;10.38;5.30;;;;;;;;;;4813047;29;32287;-64
2021/10/18 11:35:25;;;;;;;10.07;4.47;;;;;;;;;;4802983;29;32619;-66
2021/10/18 11:37:58;;;;;;;10.23;6.50;;;;;;;;;;4812556;29;32119;-65
2021/10/18 11:40:29;;;;;;;8.30;5.03;;;;;;;;;;4813068;29;35776;-65
2021/10/18 11:43:00;;;;;;;12.13;5.60;;;;;;;;;;4812963;29;32966;-64
2021/10/18 11:45:29;;;;;;;8.82;4.60;;;;;;;;;;4811001;29;32405;-63
2021/10/18 11:48:08;;;;;;;10.43;4.95;;;;;;;;;;4794841;29;32372;-64
2021/10/18 11:50:39;;;;;;;10.13;5.05;;;;;;;;;;4806651;29;34502;-64
2021/10/18 11:53:14;;;;;;;8.32;4.90;;;;;;;;;;4812660;29;32432;-66
2021/10/18 11:55:43;;;;;;;7.13;4.68;;;;;;;;;;4813104;29;32437;-64
2021/10/18 11:58:11;;;;;;;9.80;5.55;;;;;;;;;;4813077;29;32442;-65
2021/10/18 12:00:42;;;;;;;10.50;5.22;;;;;;;;;;4813184;29;32398;-64
2021/10/18 12:03:11;;;;;;;10.30;4.93;;;;;;;;;;4813021;29;34578;-63
2021/10/18 12:05:40;;;;;;;8.88;5.25;;;;;;;;;;4812895;29;32556;-63
2021/10/18 12:08:08;;;;;;;11.82;5.18;;;;;;;;;;4796063;29;32304;-65
2021/10/18 12:10:35;;;;;;;11.18;5.22;;;;;;;;;;4812649;29;32214;-66
2021/10/18 12:13:21;;;;;;;11.85;5.35;;;;;;;;;;4808256;29;35006;-66
2021/10/18 12:16:09;;;;;;;12.15;5.53;;;;;;;;;;4809676;29;32876;-65
2021/10/18 12:18:44;;;;;;;11.25;5.28;;;;;;;;;;4811931;29;32534;-65
2021/10/18 12:21:13;;;;;;;9.90;5.70;;;;;;;;;;4812627;29;32347;-66
2021/10/18 12:23:49;;;;;;;9.48;5.22;;;;;;;;;;4812802;29;32100;-66
2021/10/18 12:26:18;;;;;;;10.68;4.97;;;;;;;;;;4795478;29;34183;-64
2021/10/18 12:28:49;;;;;;;9.68;4.88;;;;;;;;;;4794168;29;32329;-64
2021/10/18 12:31:30;;;;;;;10.05;5.22;;;;;;;;;;4794025;29;32402;-65
2021/10/18 12:34:15;;;;;;;10.27;5.35;;;;;;;;;;4794104;29;32407;-64
2021/10/18 12:36:57;;;;;;;12.18;5.90;;;;;;;;;;4809035;29;35455;-64
2021/10/18 12:39:42;;;;;;;10.27;5.10;;;;;;;;;;4812131;29;32275;-66
2021/10/18 12:42:11;;;;;;;12.40;5.10;;;;;;;;;;4822755;29;32443;-64
2021/10/18 12:44:42;;;;;;;8.90;4.90;;;;;;;;;;4830850;29;32265;-66
2021/10/18 12:47:15;;;;;;;11.57;5.38;;;;;;;;;;4830181;29;32412;-66
2021/10/18 12:49:42;;;;;;;;;;;;;;;;;;4823689;29;34780;-65
2021/10/18 12:52:09;;;;;;;11.43;5.40;;;;;;;;;;4818243;29;32541;-65
2021/10/18 12:54:41;;;;;;;11.05;5.03;;;;;;;;;;4830369;29;32822;-64
2021/10/18 12:57:10;;;;;;;9.18;5.18;;;;;;;;;;4830280;29;32488;-66
2021/10/18 13:00:02;;;;;;;12.18;5.53;;;;;;;;;;4813653;29;35485;-65
2021/10/18 13:02:30;;;;;;;9.93;5.38;;;;;;;;;;4816320;29;32496;-63
2021/10/18 13:05:11;;;;;;;11.38;5.10;;;;;;;;;;4830239;29;32428;-64
2021/10/18 13:07:39;;;;;;;13.50;5.20;;;;;;;;;;4814917;29;32503;-66
2021/10/18 13:10:10;;;;;;;11.63;5.10;;;;;;;;;;4816158;29;32345;-64
2021/10/18 13:12:38;;;;;;;11.93;5.53;;;;;;;;;;4796333;29;34231;-66
2021/10/18 13:15:08;;;;;;;11.77;5.22;;;;;;;;;;4828308;29;32476;-64
2021/10/18 13:17:35;;;;;;;8.60;4.85;;;;;;;;;;4808384;29;32093;-64
2021/10/18 13:20:01;;;;;;;;;;;;;;;;;;4829810;29;32249;-66
2021/10/18 13:22:27;;;;;;;;;;;;;;;;;;4826657;29;34698;-64
2021/10/18 13:24:54;;;;;;;9.77;4.63;;;;;;;;;;4813993;29;32455;-65
2021/10/18 13:27:20;;;;;;;14.15;4.95;;;;;;;;;;4810487;29;32331;-65
2021/10/18 13:29:48;;;;;;;13.05;4.90;;;;;;;;;;4818846;29;32458;-66
2021/10/18 13:32:16;;;;;;;14.00;4.53;;;;;;;;;;4811791;29;32388;-64
2021/10/18 13:34:43;;;;;;;11.57;4.78;;;;;;;;;;4810923;29;34577;-65
2021/10/18 13:37:11;;;;;;;11.93;4.78;;;;;;;;;;4809861;29;32404;-67
2021/10/18 13:39:38;;;;;;;14.75;5.25;;;;;;;;;;4802500;29;32326;-63
2021/10/18 13:42:05;;;;;;;13.32;5.32;;;;;;;;;;4802368;29;32580;-63
2021/10/18 13:44:32;;;;;;;14.85;4.78;;;;;;;;;;4800289;29;35027;-63
2021/10/18 13:46:59;;;;;;;11.65;4.82;;;;;;;;;;4805447;29;32469;-63
2021/10/18 13:49:27;;;;;;;14.23;4.70;;;;;;;;;;4804251;29;32250;-65
2021/10/18 13:51:53;;;;;;;9.63;4.07;;;;;;;;;;4801992;29;32332;-66
2021/10/18 13:54:20;;;;;;;13.10;4.82;;;;;;;;;;4807181;29;32593;-66
2021/10/18 13:56:47;;;;;;;14.35;4.60;;;;;;;;;;4799244;29;35620;-65
2021/10/18 13:59:17;;;;;;;12.95;4.65;;;;;;;;;;4806821;29;32575;-65
2021/10/18 14:01:45;;;;;;;14.25;4.05;;;;;;;;;;4804166;29;32436;-65
2021/10/18 14:04:13;;;;;;;12.75;4.07;;;;;;;;;;4801260;29;32253;-66
2021/10/18 14:27:32;;;;;;;12.07;4.03;;;;;;;;;;4639537;30;34564;-64
2021/10/18 14:29:59;;;;;;;15.18;4.40;;;;;;;;;;4609211;30;31925;-65
2021/10/18 14:32:25;;;;;;;11.20;4.70;;;;;;;;;;4616649;30;32384;-65
2021/10/18 14:34:52;;;;;;;12.70;4.85;;;;;;;;;;4646152;25;34479;-65
2021/10/18 14:37:19;;;;;;;13.80;4.75;;;;;;;;;;4684254;25;32638;-65
2021/10/18 14:39:46;;;;;;;14.75;4.03;;;;;;;;;;4675148;25;32448;-68
2021/10/18 14:42:13;;;;;;;9.88;4.68;;;;;;;;;;4716489;24;32422;-62
2021/10/18 14:44:42;;;;;;;13.35;4.18;;;;;;;;;;4651356;30;32596;-63
2021/10/18 14:47:08;;;;;;;10.68;4.10;;;;;;;;;;4640752;30;34998;-63
2021/10/18 14:49:35;;;;;;;10.00;4.05;;;;;;;;;;4646441;30;32683;-63
2021/10/18 14:52:02;;;;;;;9.27;4.30;;;;;;;;;;4642015;30;32426;-62
2021/10/18 14:54:28;;;;;;;12.98;4.43;;;;;;;;;;4640025;30;32646;-63
2021/10/18 14:56:55;;;;;;;11.25;4.22;;;;;;;;;;4643974;30;33999;-66
2021/10/18 14:59:21;;;;;;;9.45;4.32;;;;;;;;;;4646013;30;32260;-65
2021/10/18 15:01:49;;;;;;;10.10;4.28;;;;;;;;;;4646899;30;32431;-67
2021/10/18 15:04:16;;;;;;;15.45;4.60;;;;;;;;;;4647372;30;32527;-65
2021/10/18 15:06:43;;;;;;;17.10;5.03;;;;;;;;;;4644478;30;32603;-65
2021/10/18 15:09:09;;;;;;;17.20;5.07;;;;;;;;;;4642175;30;34599;-65
2021/10/18 15:11:36;;;;;;;14.23;5.05;;;;;;;;;;4641598;30;32517;-63
2021/10/18 15:14:03;;;;;;;20.17;5.05;;;;;;;;;;4642062;30;32394;-65
2021/10/18 15:16:30;;;;;;;12.73;4.32;;;;;;;;;;4643666;30;32498;-65
2021/10/18 15:18:58;;;;;;;13.82;3.88;;;;;;;;;;4642399;30;35514;-65
2021/10/18 15:21:27;;;;;;;18.30;4.40;;;;;;;;;;4644738;30;33132;-64
2021/10/18 15:23:53;;;;;;;15.45;4.63;;;;;;;;;;4645354;30;32656;-63
2021/10/18 15:26:20;;;;;;;14.23;4.63;;;;;;;;;;4641354;30;32635;-63
2021/10/18 15:28:47;;;;;;;12.82;4.35;;;;;;;;;;4638107;30;33853;-65
2021/10/18 15:31:13;;;;;;;11.35;5.00;;;;;;;;;;4639505;30;34411;-66
2021/10/18 15:33:41;;;;;;;21.08;5.35;;;;;;;;;;4643973;30;32405;-63
2021/10/18 15:36:09;;;;;;;18.90;5.47;;;;;;;;;;4644949;30;32378;-64
2021/10/18 15:38:36;;;;;;;11.52;4.40;;;;;;;;;;4635932;30;32400;-65
2021/10/18 15:41:02;;;;;;;16.33;4.20;;;;;;;;;;4639330;30;33960;-64
2021/10/18 15:43:29;;;;;;;12.85;4.25;;;;;;;;;;4635163;30;32561;-65
2021/10/18 15:45:56;;;;;;;19.05;4.93;;;;;;;;;;4636404;30;32443;-63
2021/10/18 15:48:24;;;;;;;13.32;4.53;;;;;;;;;;4636181;30;32946;-66
2021/10/18 15:50:51;;;;;;;14.23;3.97;;;;;;;;;;4640401;30;32397;-63
2021/10/18 15:53:20;;;;;;;14.02;4.35;;;;;;;;;;4646375;30;35581;-63
2021/10/18 15:55:48;;;;;;;16.92;4.97;;;;;;;;;;4639035;30;32509;-65
2021/10/18 15:58:16;;;;;;;19.95;4.70;;;;;;;;;;4640121;30;32459;-67
2021/10/18 16:00:44;;;;;;;17.55;4.07;;;;;;;;;;4644954;30;32530;-64
2021/10/18 16:03:10;;;;;;;11.65;5.15;;;;;;;;;;4638992;30;34353;-65
2021/10/18 16:05:37;;;;;;;11.93;3.80;;;;;;;;;;4647113;30;32543;-63
2021/10/18 16:08:05;;;;;;;;;;;;;;;;;;4653925;30;32601;-66
2021/10/18 16:10:34;;;;;;;11.43;3.78;;;;;;;;;;4645072;30;32520;-67
2021/10/18 16:13:00;;;;;;;12.13;3.47;;;;;;;;;;4649927;30;33009;-64
2021/10/18 16:15:27;;;;;;;13.80;3.67;;;;;;;;;;4638442;30;35552;-63
2021/10/18 16:17:54;;;;;;;;;;;;;;;;;;4640219;30;32438;-64
2021/10/18 16:20:20;;;;;;;;;;;;;;;;;;4641929;30;32558;-65
2021/10/18 16:22:46;;;;;;;;;;;;;;;;;;4638232;30;32451;-63